sensor_id;sensor_type;location;lat;lon;timestamp;temperature;humidity
24252;DHT22;12380;51.118;4.176;2023-03-20T00:01:30;5.60;99.90
24252;DHT22;12380;51.118;4.176;2023-03-20T00:03:57;5.50;99.90
24252;DHT22;12380;51.118;4.176;2023-03-20T00:06:24;5.50;99.90
24252;DHT22;12380;51.118;4.176;2023-03-20T00:08:54;5.50;99.90
24252;DHT22;12380;51.118;4.176;2023-03-20T00:11:37;5.60;99.90
24252;DHT22;12380;51.118;4.176;2023-03-20T00:14:07;5.60;99.90
24252;DHT22;12380;51.118;4.176;2023-03-20T00:16:35;5.50;99.90
24252;DHT22;12380;51.118;4.176;2023-03-20T00:19:03;5.60;99.90
24252;DHT22;12380;51.118;4.176;2023-03-20T00:21:29;5.60;99.90
24252;DHT22;12380;51.118;4.176;2023-03-20T00:23:55;5.60;99.90
24252;DHT22;12380;51.118;4.176;2023-03-20T00:26:25;5.60;99.90
24252;DHT22;12380;51.118;4.176;2023-03-20T00:28:54;5.40;99.90
24252;DHT22;12380;51.118;4.176;2023-03-20T00:31:36;5.40;99.90
24252;DHT22;12380;51.118;4.176;2023-03-20T00:34:11;5.30;99.90
24252;DHT22;12380;51.118;4.176;2023-03-20T00:36:39;5.20;99.90
24252;DHT22;12380;51.118;4.176;2023-03-20T00:39:06;5.30;99.90
24252;DHT22;12380;51.118;4.176;2023-03-20T00:46:36;5.50;99.90
24252;DHT22;12380;51.118;4.176;2023-03-20T00:49:03;5.50;99.90
24252;DHT22;12380;51.118;4.176;2023-03-20T00:51:28;5.50;99.90
24252;DHT22;12380;51.118;4.176;2023-03-20T00:53:57;5.50;99.90
24252;DHT22;12380;51.118;4.176;2023-03-20T00:58:49;5.40;99.90
24252;DHT22;12380;51.118;4.176;2023-03-20T01:01:14;5.40;99.90
24252;DHT22;12380;51.118;4.176;2023-03-20T01:03:40;5.40;99.90
24252;DHT22;12380;51.118;4.176;2023-03-20T01:06:11;5.40;99.90
24252;DHT22;12380;51.118;4.176;2023-03-20T01:08:37;5.20;99.90
24252;DHT22;12380;51.118;4.176;2023-03-20T01:11:03;5.30;99.90
24252;DHT22;12380;51.118;4.176;2023-03-20T01:13:29;5.30;99.90
24252;DHT22;12380;51.118;4.176;2023-03-20T01:15:59;5.30;99.90
24252;DHT22;12380;51.118;4.176;2023-03-20T01:18:26;5.40;99.90
24252;DHT22;12380;51.118;4.176;2023-03-20T01:20:52;5.40;99.90
24252;DHT22;12380;51.118;4.176;2023-03-20T01:23:19;5.40;99.90
24252;DHT22;12380;51.118;4.176;2023-03-20T01:25:47;5.40;99.90
24252;DHT22;12380;51.118;4.176;2023-03-20T01:28:21;5.50;99.90
24252;DHT22;12380;51.118;4.176;2023-03-20T01:30:50;5.50;99.90
24252;DHT22;12380;51.118;4.176;2023-03-20T01:33:22;5.50;99.90
24252;DHT22;12380;51.118;4.176;2023-03-20T01:35:50;5.60;99.90
24252;DHT22;12380;51.118;4.176;2023-03-20T01:38:28;5.50;99.90
24252;DHT22;12380;51.118;4.176;2023-03-20T01:41:02;5.60;99.90
24252;DHT22;12380;51.118;4.176;2023-03-20T01:43:33;5.70;99.90
24252;DHT22;12380;51.118;4.176;2023-03-20T01:46:19;5.60;99.90
24252;DHT22;12380;51.118;4.176;2023-03-20T01:51:31;5.70;99.90
24252;DHT22;12380;51.118;4.176;2023-03-20T01:54:12;5.80;99.90
24252;DHT22;12380;51.118;4.176;2023-03-20T01:56:49;5.70;99.90
24252;DHT22;12380;51.118;4.176;2023-03-20T01:59:21;5.70;99.90
24252;DHT22;12380;51.118;4.176;2023-03-20T02:01:49;5.70;99.90
24252;DHT22;12380;51.118;4.176;2023-03-20T02:04:16;5.70;99.90
24252;DHT22;12380;51.118;4.176;2023-03-20T02:06:47;5.80;99.90
24252;DHT22;12380;51.118;4.176;2023-03-20T02:09:15;5.60;99.90
24252;DHT22;12380;51.118;4.176;2023-03-20T02:11:42;5.60;99.90
24252;DHT22;12380;51.118;4.176;2023-03-20T02:14:09;5.60;99.90
24252;DHT22;12380;51.118;4.176;2023-03-20T02:16:38;5.60;99.90
24252;DHT22;12380;51.118;4.176;2023-03-20T02:19:05;5.60;99.90
24252;DHT22;12380;51.118;4.176;2023-03-20T02:31:18;5.40;99.90
24252;DHT22;12380;51.118;4.176;2023-03-20T02:45:06;5.40;99.90
24252;DHT22;12380;51.118;4.176;2023-03-20T02:47:52;5.50;99.90
24252;DHT22;12380;51.118;4.176;2023-03-20T02:59:12;5.40;99.90
24252;DHT22;12380;51.118;4.176;2023-03-20T03:01:57;5.40;99.90
24252;DHT22;12380;51.118;4.176;2023-03-20T03:04:29;5.40;99.90
24252;DHT22;12380;51.118;4.176;2023-03-20T03:06:57;5.50;99.90
24252;DHT22;12380;51.118;4.176;2023-03-20T03:09:47;5.60;99.90
24252;DHT22;12380;51.118;4.176;2023-03-20T03:12:20;5.60;99.90
24252;DHT22;12380;51.118;4.176;2023-03-20T03:15:05;5.60;99.90
24252;DHT22;12380;51.118;4.176;2023-03-20T03:17:36;5.50;99.90
24252;DHT22;12380;51.118;4.176;2023-03-20T03:20:08;5.50;99.90
24252;DHT22;12380;51.118;4.176;2023-03-20T03:22:40;5.60;99.90
24252;DHT22;12380;51.118;4.176;2023-03-20T03:25:08;5.60;99.90
24252;DHT22;12380;51.118;4.176;2023-03-20T03:27:40;5.60;99.90
24252;DHT22;12380;51.118;4.176;2023-03-20T03:30:12;5.50;99.90
24252;DHT22;12380;51.118;4.176;2023-03-20T03:32:49;5.50;99.90
24252;DHT22;12380;51.118;4.176;2023-03-20T03:35:20;5.50;99.90
24252;DHT22;12380;51.118;4.176;2023-03-20T03:38:07;5.60;99.90
24252;DHT22;12380;51.118;4.176;2023-03-20T03:40:47;5.60;99.90
24252;DHT22;12380;51.118;4.176;2023-03-20T03:43:27;5.60;99.90
24252;DHT22;12380;51.118;4.176;2023-03-20T03:46:06;5.60;99.90
24252;DHT22;12380;51.118;4.176;2023-03-20T03:48:38;5.60;99.90
24252;DHT22;12380;51.118;4.176;2023-03-20T03:51:09;5.70;99.90
24252;DHT22;12380;51.118;4.176;2023-03-20T03:53:40;5.70;99.90
24252;DHT22;12380;51.118;4.176;2023-03-20T03:56:10;5.60;99.90
24252;DHT22;12380;51.118;4.176;2023-03-20T03:58:42;5.60;99.90
24252;DHT22;12380;51.118;4.176;2023-03-20T04:01:11;5.60;99.90
24252;DHT22;12380;51.118;4.176;2023-03-20T04:03:58;5.60;99.90
24252;DHT22;12380;51.118;4.176;2023-03-20T04:06:27;5.70;99.90
24252;DHT22;12380;51.118;4.176;2023-03-20T04:08:53;5.70;99.90
24252;DHT22;12380;51.118;4.176;2023-03-20T04:11:22;5.70;99.90
24252;DHT22;12380;51.118;4.176;2023-03-20T04:13:52;5.70;99.90
24252;DHT22;12380;51.118;4.176;2023-03-20T04:16:20;5.60;99.90
24252;DHT22;12380;51.118;4.176;2023-03-20T04:18:49;5.80;99.90
24252;DHT22;12380;51.118;4.176;2023-03-20T04:21:15;5.70;99.90
24252;DHT22;12380;51.118;4.176;2023-03-20T04:23:46;5.60;99.90
24252;DHT22;12380;51.118;4.176;2023-03-20T04:26:12;5.70;99.90
24252;DHT22;12380;51.118;4.176;2023-03-20T04:28:38;5.70;99.90
24252;DHT22;12380;51.118;4.176;2023-03-20T04:31:04;5.90;99.90
24252;DHT22;12380;51.118;4.176;2023-03-20T04:33:30;5.90;99.90
24252;DHT22;12380;51.118;4.176;2023-03-20T04:35:56;5.90;99.90
24252;DHT22;12380;51.118;4.176;2023-03-20T04:38:24;5.90;99.90
24252;DHT22;12380;51.118;4.176;2023-03-20T04:40:50;5.90;99.90
24252;DHT22;12380;51.118;4.176;2023-03-20T04:43:16;5.80;99.90
24252;DHT22;12380;51.118;4.176;2023-03-20T04:45:44;5.70;99.90
24252;DHT22;12380;51.118;4.176;2023-03-20T04:48:12;5.80;99.90
24252;DHT22;12380;51.118;4.176;2023-03-20T04:50:38;5.80;99.90
24252;DHT22;12380;51.118;4.176;2023-03-20T04:53:04;5.70;99.90
24252;DHT22;12380;51.118;4.176;2023-03-20T04:55:30;5.90;99.90
24252;DHT22;12380;51.118;4.176;2023-03-20T04:57:58;5.80;99.90
24252;DHT22;12380;51.118;4.176;2023-03-20T05:00:24;5.90;99.90
24252;DHT22;12380;51.118;4.176;2023-03-20T05:02:51;6.10;99.90
24252;DHT22;12380;51.118;4.176;2023-03-20T05:05:21;5.90;99.90
24252;DHT22;12380;51.118;4.176;2023-03-20T05:07:50;6.10;99.90
24252;DHT22;12380;51.118;4.176;2023-03-20T05:10:17;6.00;99.90
24252;DHT22;12380;51.118;4.176;2023-03-20T05:12:42;6.10;99.90
24252;DHT22;12380;51.118;4.176;2023-03-20T05:15:08;6.00;99.90
24252;DHT22;12380;51.118;4.176;2023-03-20T05:17:37;6.00;99.90
24252;DHT22;12380;51.118;4.176;2023-03-20T05:20:04;6.00;99.90
24252;DHT22;12380;51.118;4.176;2023-03-20T05:22:32;6.00;99.90
24252;DHT22;12380;51.118;4.176;2023-03-20T05:25:00;6.00;99.90
24252;DHT22;12380;51.118;4.176;2023-03-20T05:27:26;6.00;99.90
24252;DHT22;12380;51.118;4.176;2023-03-20T05:29:57;6.00;99.90
24252;DHT22;12380;51.118;4.176;2023-03-20T05:32:23;6.00;99.90
24252;DHT22;12380;51.118;4.176;2023-03-20T05:34:49;6.10;99.90
24252;DHT22;12380;51.118;4.176;2023-03-20T05:37:15;6.20;99.90
24252;DHT22;12380;51.118;4.176;2023-03-20T05:39:40;6.10;99.90
24252;DHT22;12380;51.118;4.176;2023-03-20T05:42:06;6.10;99.90
24252;DHT22;12380;51.118;4.176;2023-03-20T05:44:34;6.10;99.90
24252;DHT22;12380;51.118;4.176;2023-03-20T05:47:02;6.10;99.90
24252;DHT22;12380;51.118;4.176;2023-03-20T05:49:30;6.00;99.90
24252;DHT22;12380;51.118;4.176;2023-03-20T05:51:56;6.10;99.90
24252;DHT22;12380;51.118;4.176;2023-03-20T05:54:22;6.10;99.90
24252;DHT22;12380;51.118;4.176;2023-03-20T05:56:50;6.30;99.90
24252;DHT22;12380;51.118;4.176;2023-03-20T05:59:15;6.40;99.90
24252;DHT22;12380;51.118;4.176;2023-03-20T06:01:42;6.30;99.90
24252;DHT22;12380;51.118;4.176;2023-03-20T06:04:08;6.40;99.90
24252;DHT22;12380;51.118;4.176;2023-03-20T06:06:36;6.30;99.90
24252;DHT22;12380;51.118;4.176;2023-03-20T06:09:03;6.20;99.90
24252;DHT22;12380;51.118;4.176;2023-03-20T06:11:29;6.20;99.90
24252;DHT22;12380;51.118;4.176;2023-03-20T06:13:55;6.30;99.90
24252;DHT22;12380;51.118;4.176;2023-03-20T06:16:22;6.30;99.90
24252;DHT22;12380;51.118;4.176;2023-03-20T06:18:48;6.30;99.90
24252;DHT22;12380;51.118;4.176;2023-03-20T06:21:14;6.30;99.90
24252;DHT22;12380;51.118;4.176;2023-03-20T06:23:40;6.30;99.90
24252;DHT22;12380;51.118;4.176;2023-03-20T06:26:08;6.20;99.90
24252;DHT22;12380;51.118;4.176;2023-03-20T06:28:36;6.20;99.90
24252;DHT22;12380;51.118;4.176;2023-03-20T06:31:02;6.10;99.90
24252;DHT22;12380;51.118;4.176;2023-03-20T06:33:28;6.10;99.90
24252;DHT22;12380;51.118;4.176;2023-03-20T06:35:53;6.10;99.90
24252;DHT22;12380;51.118;4.176;2023-03-20T06:38:19;6.10;99.90
24252;DHT22;12380;51.118;4.176;2023-03-20T06:40:45;6.10;99.90
24252;DHT22;12380;51.118;4.176;2023-03-20T06:43:15;6.00;99.90
24252;DHT22;12380;51.118;4.176;2023-03-20T06:45:41;6.00;99.90
24252;DHT22;12380;51.118;4.176;2023-03-20T06:48:09;6.10;99.90
24252;DHT22;12380;51.118;4.176;2023-03-20T06:50:35;6.10;99.90
24252;DHT22;12380;51.118;4.176;2023-03-20T06:53:01;6.10;99.90
24252;DHT22;12380;51.118;4.176;2023-03-20T06:55:27;6.20;99.90
24252;DHT22;12380;51.118;4.176;2023-03-20T06:57:53;6.30;99.90
24252;DHT22;12380;51.118;4.176;2023-03-20T07:00:19;6.40;99.90
24252;DHT22;12380;51.118;4.176;2023-03-20T07:02:46;6.40;99.90
24252;DHT22;12380;51.118;4.176;2023-03-20T07:05:13;6.40;99.90
24252;DHT22;12380;51.118;4.176;2023-03-20T07:07:39;6.50;99.90
24252;DHT22;12380;51.118;4.176;2023-03-20T07:10:06;6.50;99.90
24252;DHT22;12380;51.118;4.176;2023-03-20T07:12:34;6.60;99.90
24252;DHT22;12380;51.118;4.176;2023-03-20T07:15:03;6.70;99.90
24252;DHT22;12380;51.118;4.176;2023-03-20T07:17:30;6.60;99.90
24252;DHT22;12380;51.118;4.176;2023-03-20T07:19:56;6.60;99.90
24252;DHT22;12380;51.118;4.176;2023-03-20T07:22:26;6.70;99.90
24252;DHT22;12380;51.118;4.176;2023-03-20T07:24:52;6.60;99.90
24252;DHT22;12380;51.118;4.176;2023-03-20T07:27:19;6.70;99.90
24252;DHT22;12380;51.118;4.176;2023-03-20T07:29:47;6.70;99.90
24252;DHT22;12380;51.118;4.176;2023-03-20T07:32:16;6.70;99.90
24252;DHT22;12380;51.118;4.176;2023-03-20T07:34:45;6.80;99.90
24252;DHT22;12380;51.118;4.176;2023-03-20T07:37:12;6.80;99.90
24252;DHT22;12380;51.118;4.176;2023-03-20T07:39:37;6.80;99.90
24252;DHT22;12380;51.118;4.176;2023-03-20T07:42:03;6.80;99.90
24252;DHT22;12380;51.118;4.176;2023-03-20T07:44:32;6.90;99.90
24252;DHT22;12380;51.118;4.176;2023-03-20T07:46:58;6.90;99.90
24252;DHT22;12380;51.118;4.176;2023-03-20T07:49:23;7.10;99.90
24252;DHT22;12380;51.118;4.176;2023-03-20T07:51:51;7.10;99.90
24252;DHT22;12380;51.118;4.176;2023-03-20T07:54:22;7.00;99.90
24252;DHT22;12380;51.118;4.176;2023-03-20T07:56:48;7.00;99.90
24252;DHT22;12380;51.118;4.176;2023-03-20T07:59:16;7.10;99.90
24252;DHT22;12380;51.118;4.176;2023-03-20T08:01:44;7.10;99.90
24252;DHT22;12380;51.118;4.176;2023-03-20T08:04:12;7.00;99.90
24252;DHT22;12380;51.118;4.176;2023-03-20T08:06:37;7.20;99.90
24252;DHT22;12380;51.118;4.176;2023-03-20T08:09:04;7.30;99.90
24252;DHT22;12380;51.118;4.176;2023-03-20T08:11:30;7.30;99.90
24252;DHT22;12380;51.118;4.176;2023-03-20T08:13:57;7.30;99.90
24252;DHT22;12380;51.118;4.176;2023-03-20T08:16:25;7.40;99.90
24252;DHT22;12380;51.118;4.176;2023-03-20T08:18:51;7.40;99.90
24252;DHT22;12380;51.118;4.176;2023-03-20T08:21:18;7.40;99.90
24252;DHT22;12380;51.118;4.176;2023-03-20T08:23:44;7.50;99.90
24252;DHT22;12380;51.118;4.176;2023-03-20T08:26:11;7.50;99.90
24252;DHT22;12380;51.118;4.176;2023-03-20T08:28:37;7.50;99.90
24252;DHT22;12380;51.118;4.176;2023-03-20T08:31:07;7.50;99.90
24252;DHT22;12380;51.118;4.176;2023-03-20T08:33:33;7.60;99.90
24252;DHT22;12380;51.118;4.176;2023-03-20T08:35:58;7.70;99.90
24252;DHT22;12380;51.118;4.176;2023-03-20T08:38:24;7.60;99.90
24252;DHT22;12380;51.118;4.176;2023-03-20T08:40:52;7.70;99.90
24252;DHT22;12380;51.118;4.176;2023-03-20T08:43:19;7.70;99.90
24252;DHT22;12380;51.118;4.176;2023-03-20T08:45:45;7.80;99.90
24252;DHT22;12380;51.118;4.176;2023-03-20T08:48:11;7.80;99.90
24252;DHT22;12380;51.118;4.176;2023-03-20T08:50:37;7.70;99.90
24252;DHT22;12380;51.118;4.176;2023-03-20T08:53:05;7.70;99.90
24252;DHT22;12380;51.118;4.176;2023-03-20T08:55:31;7.70;99.90
24252;DHT22;12380;51.118;4.176;2023-03-20T08:58:00;7.80;99.90
24252;DHT22;12380;51.118;4.176;2023-03-20T09:00:25;7.80;99.90
24252;DHT22;12380;51.118;4.176;2023-03-20T09:02:53;7.80;99.90
24252;DHT22;12380;51.118;4.176;2023-03-20T09:05:19;7.90;99.90
24252;DHT22;12380;51.118;4.176;2023-03-20T09:07:45;8.00;99.90
24252;DHT22;12380;51.118;4.176;2023-03-20T09:10:11;8.00;99.90
24252;DHT22;12380;51.118;4.176;2023-03-20T09:12:39;8.10;99.90
24252;DHT22;12380;51.118;4.176;2023-03-20T09:15:06;8.10;99.90
24252;DHT22;12380;51.118;4.176;2023-03-20T09:17:32;8.00;99.90
24252;DHT22;12380;51.118;4.176;2023-03-20T09:19:58;8.00;99.90
24252;DHT22;12380;51.118;4.176;2023-03-20T09:22:26;8.10;99.90
24252;DHT22;12380;51.118;4.176;2023-03-20T09:24:55;8.10;99.90
24252;DHT22;12380;51.118;4.176;2023-03-20T09:27:27;8.30;99.90
24252;DHT22;12380;51.118;4.176;2023-03-20T09:29:52;8.40;99.90
24252;DHT22;12380;51.118;4.176;2023-03-20T09:32:18;8.40;99.90
24252;DHT22;12380;51.118;4.176;2023-03-20T09:34:44;8.30;99.90
24252;DHT22;12380;51.118;4.176;2023-03-20T09:37:12;8.40;99.90
24252;DHT22;12380;51.118;4.176;2023-03-20T09:39:37;8.60;99.90
24252;DHT22;12380;51.118;4.176;2023-03-20T09:42:22;8.80;99.90
24252;DHT22;12380;51.118;4.176;2023-03-20T09:48:15;8.80;99.90
24252;DHT22;12380;51.118;4.176;2023-03-20T09:51:11;8.80;99.90
24252;DHT22;12380;51.118;4.176;2023-03-20T09:53:43;9.00;99.90
24252;DHT22;12380;51.118;4.176;2023-03-20T09:56:22;9.00;99.90
24252;DHT22;12380;51.118;4.176;2023-03-20T09:58:53;9.10;99.90
24252;DHT22;12380;51.118;4.176;2023-03-20T10:01:23;9.10;99.90
24252;DHT22;12380;51.118;4.176;2023-03-20T10:03:55;9.00;99.90
24252;DHT22;12380;51.118;4.176;2023-03-20T10:06:22;9.20;99.90
24252;DHT22;12380;51.118;4.176;2023-03-20T10:08:48;9.00;99.90
24252;DHT22;12380;51.118;4.176;2023-03-20T10:24:29;9.30;99.90
24252;DHT22;12380;51.118;4.176;2023-03-20T10:27:17;9.10;99.90
24252;DHT22;12380;51.118;4.176;2023-03-20T10:32:32;8.90;99.90
24252;DHT22;12380;51.118;4.176;2023-03-20T10:41:15;9.20;99.90
24252;DHT22;12380;51.118;4.176;2023-03-20T10:43:44;9.40;99.90
24252;DHT22;12380;51.118;4.176;2023-03-20T10:46:25;9.70;99.90
24252;DHT22;12380;51.118;4.176;2023-03-20T10:51:30;10.00;99.90
24252;DHT22;12380;51.118;4.176;2023-03-20T10:54:02;10.10;99.90
24252;DHT22;12380;51.118;4.176;2023-03-20T10:56:41;10.00;99.90
24252;DHT22;12380;51.118;4.176;2023-03-20T10:59:22;10.30;99.90
24252;DHT22;12380;51.118;4.176;2023-03-20T11:01:51;10.90;99.90
24252;DHT22;12380;51.118;4.176;2023-03-20T11:04:17;11.00;99.90
24252;DHT22;12380;51.118;4.176;2023-03-20T11:12:37;11.40;99.90
24252;DHT22;12380;51.118;4.176;2023-03-20T11:18:00;11.40;99.90
24252;DHT22;12380;51.118;4.176;2023-03-20T11:20:31;11.70;99.90
24252;DHT22;12380;51.118;4.176;2023-03-20T11:23:01;12.20;99.90
24252;DHT22;12380;51.118;4.176;2023-03-20T11:25:36;12.30;99.90
24252;DHT22;12380;51.118;4.176;2023-03-20T11:28:34;12.30;99.90
24252;DHT22;12380;51.118;4.176;2023-03-20T11:33:49;12.30;99.90
24252;DHT22;12380;51.118;4.176;2023-03-20T11:36:26;12.00;99.90
24252;DHT22;12380;51.118;4.176;2023-03-20T11:39:05;11.90;99.90
24252;DHT22;12380;51.118;4.176;2023-03-20T11:41:31;12.00;99.90
24252;DHT22;12380;51.118;4.176;2023-03-20T11:43:57;11.80;99.90
24252;DHT22;12380;51.118;4.176;2023-03-20T11:46:24;11.80;99.90
24252;DHT22;12380;51.118;4.176;2023-03-20T11:49:19;12.10;99.90
24252;DHT22;12380;51.118;4.176;2023-03-20T11:51:45;11.60;99.90
24252;DHT22;12380;51.118;4.176;2023-03-20T11:54:18;11.50;99.90
24252;DHT22;12380;51.118;4.176;2023-03-20T11:56:56;11.80;99.90
24252;DHT22;12380;51.118;4.176;2023-03-20T11:59:33;11.70;99.90
24252;DHT22;12380;51.118;4.176;2023-03-20T12:02:12;11.60;99.90
24252;DHT22;12380;51.118;4.176;2023-03-20T12:04:43;11.60;99.90
24252;DHT22;12380;51.118;4.176;2023-03-20T12:07:31;11.40;99.90
24252;DHT22;12380;51.118;4.176;2023-03-20T12:10:03;11.60;99.90
24252;DHT22;12380;51.118;4.176;2023-03-20T12:12:40;11.80;99.90
24252;DHT22;12380;51.118;4.176;2023-03-20T12:15:35;11.70;99.90
24252;DHT22;12380;51.118;4.176;2023-03-20T12:28:55;12.00;99.90
24252;DHT22;12380;51.118;4.176;2023-03-20T12:31:52;11.80;99.90
24252;DHT22;12380;51.118;4.176;2023-03-20T12:34:34;11.90;99.90
24252;DHT22;12380;51.118;4.176;2023-03-20T12:37:08;11.80;99.90
24252;DHT22;12380;51.118;4.176;2023-03-20T12:46:16;11.60;99.90
24252;DHT22;12380;51.118;4.176;2023-03-20T12:51:12;11.50;99.90
24252;DHT22;12380;51.118;4.176;2023-03-20T12:56:30;11.40;99.90
24252;DHT22;12380;51.118;4.176;2023-03-20T12:59:44;11.40;99.90
24252;DHT22;12380;51.118;4.176;2023-03-20T13:02:33;11.40;99.90
24252;DHT22;12380;51.118;4.176;2023-03-20T13:10:39;11.40;99.90
24252;DHT22;12380;51.118;4.176;2023-03-20T13:21:18;11.30;99.90
24252;DHT22;12380;51.118;4.176;2023-03-20T13:26:32;11.50;99.90
24252;DHT22;12380;51.118;4.176;2023-03-20T13:32:21;11.60;99.90
24252;DHT22;12380;51.118;4.176;2023-03-20T13:37:49;11.70;99.90
24252;DHT22;12380;51.118;4.176;2023-03-20T13:40:30;11.70;99.90
24252;DHT22;12380;51.118;4.176;2023-03-20T13:45:43;11.70;99.90
24252;DHT22;12380;51.118;4.176;2023-03-20T13:48:24;11.50;99.90
24252;DHT22;12380;51.118;4.176;2023-03-20T14:04:21;11.60;99.90
24252;DHT22;12380;51.118;4.176;2023-03-20T14:06:54;11.60;99.90
24252;DHT22;12380;51.118;4.176;2023-03-20T14:09:36;11.80;99.90
24252;DHT22;12380;51.118;4.176;2023-03-20T14:17:18;12.10;99.90
24252;DHT22;12380;51.118;4.176;2023-03-20T14:19:45;12.00;99.90
24252;DHT22;12380;51.118;4.176;2023-03-20T14:22:37;11.90;99.90
24252;DHT22;12380;51.118;4.176;2023-03-20T14:25:14;12.10;99.90
24252;DHT22;12380;51.118;4.176;2023-03-20T14:28:06;12.00;99.90
24252;DHT22;12380;51.118;4.176;2023-03-20T14:35:37;11.70;99.90
24252;DHT22;12380;51.118;4.176;2023-03-20T14:38:26;11.70;99.90
24252;DHT22;12380;51.118;4.176;2023-03-20T14:41:22;11.70;99.90
24252;DHT22;12380;51.118;4.176;2023-03-20T14:46:48;11.70;99.90
24252;DHT22;12380;51.118;4.176;2023-03-20T14:49:47;11.50;99.90
24252;DHT22;12380;51.118;4.176;2023-03-20T14:55:31;11.40;99.90
24252;DHT22;12380;51.118;4.176;2023-03-20T14:58:26;11.40;99.90
24252;DHT22;12380;51.118;4.176;2023-03-20T15:00:50;11.30;99.90
24252;DHT22;12380;51.118;4.176;2023-03-20T15:03:16;11.40;99.90
24252;DHT22;12380;51.118;4.176;2023-03-20T15:05:42;11.30;99.90
24252;DHT22;12380;51.118;4.176;2023-03-20T15:08:18;11.40;99.90
24252;DHT22;12380;51.118;4.176;2023-03-20T15:10:52;11.50;99.90
24252;DHT22;12380;51.118;4.176;2023-03-20T15:13:19;11.60;99.90
24252;DHT22;12380;51.118;4.176;2023-03-20T15:15:57;11.50;99.90
24252;DHT22;12380;51.118;4.176;2023-03-20T15:18:25;11.50;99.90
24252;DHT22;12380;51.118;4.176;2023-03-20T15:20:52;11.60;99.90
24252;DHT22;12380;51.118;4.176;2023-03-20T15:23:17;11.50;99.90
24252;DHT22;12380;51.118;4.176;2023-03-20T15:25:45;11.60;99.90
24252;DHT22;12380;51.118;4.176;2023-03-20T15:28:15;11.60;99.90
24252;DHT22;12380;51.118;4.176;2023-03-20T15:30:42;11.70;99.90
24252;DHT22;12380;51.118;4.176;2023-03-20T15:33:38;11.70;99.90
24252;DHT22;12380;51.118;4.176;2023-03-20T15:36:20;11.80;99.90
24252;DHT22;12380;51.118;4.176;2023-03-20T15:38:47;11.60;99.90
24252;DHT22;12380;51.118;4.176;2023-03-20T15:41:28;11.70;99.90
24252;DHT22;12380;51.118;4.176;2023-03-20T15:44:23;11.80;99.90
24252;DHT22;12380;51.118;4.176;2023-03-20T15:46:55;12.00;99.90
24252;DHT22;12380;51.118;4.176;2023-03-20T15:49:28;11.90;99.90
24252;DHT22;12380;51.118;4.176;2023-03-20T15:51:57;11.80;99.90
24252;DHT22;12380;51.118;4.176;2023-03-20T15:54:25;11.80;99.90
24252;DHT22;12380;51.118;4.176;2023-03-20T15:56:51;11.90;99.90
24252;DHT22;12380;51.118;4.176;2023-03-20T15:59:24;12.00;99.90
24252;DHT22;12380;51.118;4.176;2023-03-20T16:01:55;12.00;99.90
24252;DHT22;12380;51.118;4.176;2023-03-20T16:04:22;12.00;99.90
24252;DHT22;12380;51.118;4.176;2023-03-20T16:06:53;12.00;99.90
24252;DHT22;12380;51.118;4.176;2023-03-20T16:09:20;12.10;99.90
24252;DHT22;12380;51.118;4.176;2023-03-20T16:11:53;12.00;99.90
24252;DHT22;12380;51.118;4.176;2023-03-20T16:14:30;12.00;99.90
24252;DHT22;12380;51.118;4.176;2023-03-20T16:16:59;11.90;99.90
24252;DHT22;12380;51.118;4.176;2023-03-20T16:19:26;11.80;99.90
24252;DHT22;12380;51.118;4.176;2023-03-20T16:21:59;11.60;99.90
24252;DHT22;12380;51.118;4.176;2023-03-20T16:24:35;11.60;99.90
24252;DHT22;12380;51.118;4.176;2023-03-20T16:27:06;11.60;99.90
24252;DHT22;12380;51.118;4.176;2023-03-20T16:29:32;11.70;99.90
24252;DHT22;12380;51.118;4.176;2023-03-20T16:32:39;11.70;99.90
24252;DHT22;12380;51.118;4.176;2023-03-20T16:34:57;11.70;99.90
24252;DHT22;12380;51.118;4.176;2023-03-20T16:37:27;11.70;99.90
24252;DHT22;12380;51.118;4.176;2023-03-20T16:40:51;11.60;99.90
24252;DHT22;12380;51.118;4.176;2023-03-20T16:42:50;11.60;99.90
24252;DHT22;12380;51.118;4.176;2023-03-20T16:48:19;11.50;99.90
24252;DHT22;12380;51.118;4.176;2023-03-20T16:50:46;11.70;99.90
24252;DHT22;12380;51.118;4.176;2023-03-20T16:53:18;11.80;99.90
24252;DHT22;12380;51.118;4.176;2023-03-20T16:55:47;11.70;99.90
24252;DHT22;12380;51.118;4.176;2023-03-20T16:58:19;11.80;99.90
24252;DHT22;12380;51.118;4.176;2023-03-20T17:01:01;11.80;99.90
24252;DHT22;12380;51.118;4.176;2023-03-20T17:03:36;11.80;99.90
24252;DHT22;12380;51.118;4.176;2023-03-20T17:09:14;11.70;99.90
24252;DHT22;12380;51.118;4.176;2023-03-20T17:11:55;11.60;99.90
24252;DHT22;12380;51.118;4.176;2023-03-20T17:14:21;11.70;99.90
24252;DHT22;12380;51.118;4.176;2023-03-20T17:16:47;11.80;99.90
24252;DHT22;12380;51.118;4.176;2023-03-20T17:19:17;11.70;99.90
24252;DHT22;12380;51.118;4.176;2023-03-20T17:21:44;11.60;99.90
24252;DHT22;12380;51.118;4.176;2023-03-20T17:24:12;11.60;99.90
24252;DHT22;12380;51.118;4.176;2023-03-20T17:26:39;11.60;99.90
24252;DHT22;12380;51.118;4.176;2023-03-20T17:29:06;11.70;99.90
24252;DHT22;12380;51.118;4.176;2023-03-20T17:31:37;11.60;99.90
24252;DHT22;12380;51.118;4.176;2023-03-20T17:34:03;11.50;99.90
24252;DHT22;12380;51.118;4.176;2023-03-20T17:36:33;11.50;99.90
24252;DHT22;12380;51.118;4.176;2023-03-20T17:39:00;11.50;99.90
24252;DHT22;12380;51.118;4.176;2023-03-20T17:41:26;11.50;99.90
24252;DHT22;12380;51.118;4.176;2023-03-20T17:43:52;11.50;99.90
24252;DHT22;12380;51.118;4.176;2023-03-20T17:46:19;11.50;99.90
24252;DHT22;12380;51.118;4.176;2023-03-20T17:48:47;11.60;99.90
24252;DHT22;12380;51.118;4.176;2023-03-20T17:51:12;11.40;99.90
24252;DHT22;12380;51.118;4.176;2023-03-20T17:53:41;11.40;99.90
24252;DHT22;12380;51.118;4.176;2023-03-20T17:56:13;11.40;99.90
24252;DHT22;12380;51.118;4.176;2023-03-20T17:58:40;11.30;99.90
24252;DHT22;12380;51.118;4.176;2023-03-20T18:01:09;11.20;99.90
24252;DHT22;12380;51.118;4.176;2023-03-20T18:03:35;11.20;99.90
24252;DHT22;12380;51.118;4.176;2023-03-20T18:06:05;11.20;99.90
24252;DHT22;12380;51.118;4.176;2023-03-20T18:08:31;11.20;99.90
24252;DHT22;12380;51.118;4.176;2023-03-20T18:10:57;11.20;99.90
24252;DHT22;12380;51.118;4.176;2023-03-20T18:13:24;11.20;99.90
24252;DHT22;12380;51.118;4.176;2023-03-20T18:15:53;11.20;99.90
24252;DHT22;12380;51.118;4.176;2023-03-20T18:18:20;11.30;99.90
24252;DHT22;12380;51.118;4.176;2023-03-20T18:20:46;11.20;99.90
24252;DHT22;12380;51.118;4.176;2023-03-20T18:23:13;11.20;99.90
24252;DHT22;12380;51.118;4.176;2023-03-20T18:25:39;11.30;99.90
24252;DHT22;12380;51.118;4.176;2023-03-20T18:28:07;11.30;99.90
24252;DHT22;12380;51.118;4.176;2023-03-20T18:30:38;11.20;99.90
24252;DHT22;12380;51.118;4.176;2023-03-20T18:33:05;11.30;99.90
24252;DHT22;12380;51.118;4.176;2023-03-20T18:35:32;11.30;99.90
24252;DHT22;12380;51.118;4.176;2023-03-20T18:37:58;11.20;99.90
24252;DHT22;12380;51.118;4.176;2023-03-20T18:40:26;11.10;99.90
24252;DHT22;12380;51.118;4.176;2023-03-20T18:42:53;11.10;99.90
24252;DHT22;12380;51.118;4.176;2023-03-20T18:45:20;11.10;99.90